createdAt,value
2022-09-02T00:02:49.743Z,99372.56
2022-09-02T00:05:53.966Z,99374.84
2022-09-02T00:08:58.138Z,99373.26
2022-09-02T00:12:02.494Z,99370.23
2022-09-02T00:15:07.423Z,99368.62
2022-09-02T00:18:15.577Z,99367.41
2022-09-02T00:21:22.688Z,99366.98
2022-09-02T00:24:26.773Z,99371.09
2022-09-02T00:27:30.926Z,99369.38
2022-09-02T00:30:35.794Z,99369.23
2022-09-02T00:33:40.397Z,99365.55
2022-09-02T00:36:44.356Z,99363.41
2022-09-02T00:39:48.331Z,99361.89
2022-09-02T00:42:52.582Z,99358.08
2022-09-02T00:45:56.768Z,99354.71
2022-09-02T00:49:03.654Z,99352.18
2022-09-02T00:52:10.420Z,99351.12
2022-09-02T00:55:16.168Z,99351.78
2022-09-02T00:58:22.582Z,99354.42
2022-09-02T01:01:27.493Z,99356.70
2022-09-02T01:04:31.540Z,99353.50
2022-09-02T01:07:38.727Z,99349.48
2022-09-02T01:10:43.415Z,99354.00
2022-09-02T01:13:47.768Z,99354.52
2022-09-02T01:16:53.112Z,99353.40
2022-09-02T01:19:58.964Z,99353.56
2022-09-02T01:23:03.110Z,99356.11
2022-09-02T01:26:08.023Z,99356.98
2022-09-02T01:29:11.955Z,99359.14
2022-09-02T01:32:15.930Z,99360.02
2022-09-02T01:35:19.837Z,99356.33
2022-09-02T01:38:24.572Z,99357.64
2022-09-02T01:41:28.790Z,99359.42
2022-09-02T01:44:33.673Z,99356.40
2022-09-02T01:47:37.784Z,99356.37
2022-09-02T01:50:46.749Z,99357.12
2022-09-02T01:53:51.019Z,99359.10
2022-09-02T01:56:55.144Z,99359.67
2022-09-02T01:59:59.186Z,99361.27
2022-09-02T02:03:03.765Z,99363.98
2022-09-02T02:06:11.696Z,99361.64
2022-09-02T02:09:16.538Z,99360.23
2022-09-02T02:12:21.090Z,99358.05
2022-09-02T02:18:29.868Z,99360.23
2022-09-02T02:21:33.961Z,99359.02
2022-09-02T02:24:38.382Z,99356.64
2022-09-02T02:27:43.593Z,99354.98
2022-09-02T02:30:47.934Z,99353.70
2022-09-02T02:33:52.120Z,99351.30
2022-09-02T02:36:56.197Z,99353.45
2022-09-02T02:40:00.260Z,99346.95
2022-09-02T02:43:04.561Z,99352.00
2022-09-02T02:46:09.204Z,99350.08
2022-09-02T02:49:13.193Z,99344.71
2022-09-02T02:52:17.315Z,99344.45
2022-09-02T02:55:21.847Z,99342.39
2022-09-02T02:58:25.923Z,99342.04
2022-09-02T03:01:30.090Z,99343.21
2022-09-02T03:04:34.412Z,99342.91
2022-09-02T03:07:38.672Z,99341.69
2022-09-02T03:10:43.276Z,99344.20
2022-09-02T03:13:47.219Z,99341.27
2022-09-02T03:16:51.200Z,99343.67
2022-09-02T03:19:57.803Z,99339.88
2022-09-02T03:23:02.103Z,99340.60
2022-09-02T03:26:10.395Z,99341.36
2022-09-02T03:29:14.478Z,99338.46
2022-09-02T03:32:18.525Z,99341.46
2022-09-02T03:35:23.224Z,99346.83
2022-09-02T03:38:27.321Z,99352.85
2022-09-02T03:41:31.223Z,99352.33
2022-09-02T03:44:35.411Z,99351.81
2022-09-02T03:47:44.073Z,99354.13
2022-09-02T03:50:48.439Z,99355.77
2022-09-02T03:53:52.384Z,99357.81
2022-09-02T03:56:56.283Z,99360.02
2022-09-02T04:00:00.208Z,99362.20
2022-09-02T04:03:04.737Z,99365.36
2022-09-02T04:06:10.359Z,99364.94
2022-09-02T04:09:14.318Z,99366.48
2022-09-02T04:12:18.446Z,99372.48
2022-09-02T04:15:22.787Z,99374.61
2022-09-02T04:18:26.940Z,99373.57
2022-09-02T04:21:33.694Z,99380.06
2022-09-02T04:24:38.719Z,99381.27
2022-09-02T04:27:42.665Z,99379.10
2022-09-02T04:30:46.624Z,99382.66
2022-09-02T04:33:50.587Z,99385.58
2022-09-02T04:36:54.928Z,99384.06
2022-09-02T04:39:58.973Z,99384.64
2022-09-02T04:43:03.060Z,99383.48
2022-09-02T04:46:07.834Z,99384.45
2022-09-02T04:49:13.017Z,99381.73
2022-09-02T04:52:16.939Z,99383.45
2022-09-02T04:55:20.967Z,99381.27
2022-09-02T04:58:25.055Z,99380.13
2022-09-02T05:01:30.362Z,99378.14
2022-09-02T05:04:34.551Z,99373.23
2022-09-02T05:07:39.701Z,99377.39
2022-09-02T05:10:43.646Z,99374.28
2022-09-02T05:13:51.544Z,99375.63
2022-09-02T05:16:55.531Z,99374.32
2022-09-02T05:19:59.830Z,99373.27
2022-09-02T05:23:03.763Z,99371.30
2022-09-02T05:26:08.420Z,99368.38
2022-09-02T05:29:13.042Z,99367.10
2022-09-02T05:32:17.288Z,99368.08
2022-09-02T05:35:21.360Z,99370.31
2022-09-02T05:38:25.687Z,99366.73
2022-09-02T05:41:29.652Z,99365.28
2022-09-02T05:44:33.880Z,99369.59
2022-09-02T05:47:37.834Z,99363.75
2022-09-02T05:50:41.765Z,99359.64
2022-09-02T05:53:45.813Z,99361.15
2022-09-02T05:56:50.954Z,99362.56
2022-09-02T05:59:56.981Z,99362.51
2022-09-02T06:03:01.117Z,99360.10
2022-09-02T06:06:06.874Z,99360.21
2022-09-02T06:09:11.986Z,99359.92
2022-09-02T06:12:19.013Z,99360.93
2022-09-02T06:15:23.058Z,99357.66
2022-09-02T06:18:27.105Z,99355.88
2022-09-02T06:21:31.552Z,99358.58
2022-09-02T06:24:35.597Z,99358.69
2022-09-02T06:27:40.246Z,99361.33
2022-09-02T06:30:45.334Z,99367.81
2022-09-02T06:33:50.071Z,99368.11
2022-09-02T06:36:54.619Z,99370.34
2022-09-02T06:39:58.937Z,99368.81
2022-09-02T06:43:02.985Z,99377.08
2022-09-02T06:46:07.649Z,99369.04
2022-09-02T06:49:12.320Z,99368.74
2022-09-02T06:52:16.234Z,99369.36
2022-09-02T06:55:20.500Z,99370.23
2022-09-02T06:58:24.420Z,99371.89
2022-09-02T07:01:29.688Z,99369.48
2022-09-02T07:04:53.176Z,99367.78
2022-09-02T07:07:59.836Z,99368.86
2022-09-02T07:11:03.777Z,99369.81
2022-09-02T07:14:07.924Z,99372.60
2022-09-02T07:17:12.822Z,99372.42
2022-09-02T07:20:17.804Z,99369.44
2022-09-02T07:23:21.771Z,99366.80
2022-09-02T07:26:25.717Z,99365.73
2022-09-02T07:29:29.986Z,99361.70
2022-09-02T07:32:33.976Z,99366.88
2022-09-02T07:35:38.558Z,99367.84
2022-09-02T07:38:43.232Z,99363.63
2022-09-02T07:41:49.258Z,99365.11
2022-09-02T07:44:53.231Z,99362.02
2022-09-02T07:47:57.515Z,99361.80
2022-09-02T07:51:02.011Z,99360.32
2022-09-02T07:54:07.148Z,99351.68
2022-09-02T07:57:11.494Z,99352.48
2022-09-02T08:00:16.594Z,99351.37
2022-09-02T08:03:21.193Z,99347.11
2022-09-02T08:06:33.677Z,99346.86
2022-09-02T08:09:39.442Z,99344.55
2022-09-02T08:12:44.167Z,99345.64
2022-09-02T08:15:50.905Z,99348.04
2022-09-02T08:18:55.469Z,99342.48
2022-09-02T08:22:03.431Z,99333.44
2022-09-02T08:25:07.920Z,99337.81
2022-09-02T08:28:12.165Z,99337.20
2022-09-02T08:31:16.632Z,99334.48
2022-09-02T08:34:20.604Z,99336.98
2022-09-02T08:37:25.266Z,99332.45
2022-09-02T08:40:34.286Z,99333.41
2022-09-02T08:43:41.085Z,99331.77
2022-09-02T08:46:45.159Z,99326.77
2022-09-02T08:49:51.033Z,99327.23
2022-09-02T08:52:59.489Z,99321.77
2022-09-02T08:56:04.802Z,99323.20
2022-09-02T08:59:10.350Z,99319.80
2022-09-02T09:02:22.697Z,99316.12
2022-09-02T09:05:32.385Z,99320.92
2022-09-02T09:08:40.834Z,99317.45
2022-09-02T09:11:48.832Z,99323.26
2022-09-02T09:14:56.291Z,99321.80
2022-09-02T09:18:03.094Z,99319.71
2022-09-02T09:21:07.603Z,99319.59
2022-09-02T09:24:26.865Z,99319.86
2022-09-02T09:27:30.799Z,99318.09
2022-09-02T09:30:34.784Z,99321.11
2022-09-02T09:33:38.802Z,99313.38
2022-09-02T09:36:46.897Z,99312.14
2022-09-02T09:39:50.937Z,99311.33
2022-09-02T09:42:57.238Z,99309.52
2022-09-02T09:46:21.004Z,99312.51
2022-09-02T09:49:28.420Z,99307.71
2022-09-02T09:52:32.506Z,99303.91
2022-09-02T09:55:50.484Z,99303.92
2022-09-02T09:58:54.723Z,99306.45
2022-09-02T10:01:58.748Z,99300.13
2022-09-02T10:05:17.365Z,99298.71
2022-09-02T10:08:22.891Z,99300.75
2022-09-02T10:11:29.069Z,99297.95
2022-09-02T10:14:36.059Z,99298.31
2022-09-02T10:17:45.189Z,99291.63
2022-09-02T10:24:28.632Z,99293.63
2022-09-02T10:27:38.399Z,99285.13
2022-09-02T10:30:46.130Z,99285.71
2022-09-02T10:33:58.359Z,99283.63
2022-09-02T10:37:11.812Z,99282.83
2022-09-02T10:40:17.640Z,99276.17
2022-09-02T10:43:29.229Z,99275.26
2022-09-02T10:46:36.644Z,99277.98
2022-09-02T10:50:01.068Z,99269.63
2022-09-02T10:53:13.427Z,99270.98
2022-09-02T10:56:18.637Z,99276.34
2022-09-02T10:59:24.640Z,99274.70
2022-09-02T11:02:31.747Z,99270.88
2022-09-02T11:05:42.915Z,99267.39
2022-09-02T11:08:48.866Z,99264.57
2022-09-02T11:12:00.122Z,99259.27
2022-09-02T11:15:11.290Z,99262.51
2022-09-02T11:18:19.474Z,99252.52
2022-09-02T11:21:32.725Z,99260.27
2022-09-02T11:24:45.883Z,99258.98
2022-09-02T11:27:56.008Z,99263.86
2022-09-02T11:31:06.912Z,99255.35
2022-09-02T11:34:16.573Z,99240.59
2022-09-02T11:37:30.090Z,99240.53
2022-09-02T11:40:38.713Z,99232.69
2022-09-02T11:43:46.654Z,99237.42
2022-09-02T11:46:58.645Z,99233.95
2022-09-02T11:50:11.112Z,99239.61
2022-09-02T11:53:20.725Z,99240.49
2022-09-02T11:56:26.770Z,99231.49
2022-09-02T11:59:44.551Z,99228.13
2022-09-02T12:02:50.507Z,99224.76
2022-09-02T12:06:13.764Z,99229.09
2022-09-02T12:09:37.968Z,99222.36
2022-09-02T12:13:00.558Z,99220.09
2022-09-02T12:16:24.142Z,99222.98
2022-09-02T12:19:30.346Z,99217.29
2022-09-02T12:22:38.692Z,99214.14
2022-09-02T12:25:46.480Z,99217.16
2022-09-02T12:28:50.993Z,99212.19
2022-09-02T12:31:55.308Z,99208.37
2022-09-02T12:35:08.837Z,99203.63
2022-09-02T12:38:27.232Z,99202.58
2022-09-02T12:41:32.868Z,99196.72
2022-09-02T12:44:44.453Z,99199.31
2022-09-02T12:47:59.630Z,99194.52
2022-09-02T12:51:03.699Z,99187.27
2022-09-02T12:54:08.043Z,99184.41
2022-09-02T12:57:12.024Z,99179.08
2022-09-02T13:00:19.636Z,99172.80
2022-09-02T13:03:32.127Z,99174.52
2022-09-02T13:06:44.602Z,99172.88
2022-09-02T13:10:04.681Z,99172.94
2022-09-02T13:13:20.973Z,99175.09
2022-09-02T13:16:32.334Z,99166.11
2022-09-02T13:19:52.245Z,99171.63
2022-09-02T13:23:02.659Z,99170.09
2022-09-02T13:26:27.516Z,99172.64
2022-09-02T13:29:53.144Z,99170.98
2022-09-02T13:33:03.445Z,99170.95
2022-09-02T13:36:07.558Z,99166.42
2022-09-02T13:39:18.769Z,99168.95
2022-09-02T13:42:24.582Z,99168.41
2022-09-02T13:45:29.677Z,99168.48
2022-09-02T13:48:34.992Z,99166.05
2022-09-02T13:51:45.550Z,99162.77
2022-09-02T13:54:51.305Z,99162.11
2022-09-02T13:57:58.393Z,99157.13
2022-09-02T14:01:15.916Z,99153.09
2022-09-02T14:04:20.198Z,99150.26
2022-09-02T14:07:26.083Z,99151.84
2022-09-02T14:10:31.508Z,99151.27
2022-09-02T14:13:36.771Z,99151.30
2022-09-02T14:16:40.899Z,99153.14
2022-09-02T14:19:44.815Z,99149.35
2022-09-02T14:22:55.314Z,99148.64
2022-09-02T14:26:00.188Z,99147.28
2022-09-02T14:29:06.317Z,99149.92
2022-09-02T14:32:14.552Z,99150.74
2022-09-02T14:35:23.394Z,99149.23
2022-09-02T14:38:28.789Z,99147.84
2022-09-02T14:41:36.148Z,99150.77
2022-09-02T14:44:40.893Z,99146.91
2022-09-02T14:47:44.967Z,99146.06
2022-09-02T14:50:49.588Z,99144.93
2022-09-02T14:53:53.523Z,99139.74
2022-09-02T14:56:57.508Z,99139.75
2022-09-02T15:00:02.344Z,99134.94
2022-09-02T15:03:07.190Z,99138.11
2022-09-02T15:06:15.111Z,99143.08
2022-09-02T15:09:19.814Z,99136.86
2022-09-02T15:12:25.750Z,99138.33
2022-09-02T15:15:29.814Z,99133.86
2022-09-02T15:18:33.928Z,99135.73
2022-09-02T15:21:37.973Z,99136.98
2022-09-02T15:24:43.526Z,99134.80
2022-09-02T15:27:47.507Z,99138.25
2022-09-02T15:30:57.970Z,99135.48
2022-09-02T15:34:03.293Z,99136.98
2022-09-02T15:37:12.186Z,99133.67
2022-09-02T15:40:17.309Z,99134.44
2022-09-02T15:43:21.476Z,99135.24
2022-09-02T15:46:27.329Z,99131.76
2022-09-02T15:49:32.623Z,99131.38
2022-09-02T15:52:37.026Z,99132.14
2022-09-02T15:55:41.077Z,99134.52
2022-09-02T15:58:45.084Z,99130.27
2022-09-02T16:01:50.037Z,99138.08
2022-09-02T16:04:54.287Z,99134.76
2022-09-02T16:07:58.231Z,99132.70
2022-09-02T16:11:06.094Z,99132.66
2022-09-02T16:14:10.536Z,99132.30
2022-09-02T16:17:16.593Z,99131.88
2022-09-02T16:20:21.465Z,99132.16
2022-09-02T16:23:25.831Z,99129.94
2022-09-02T16:26:30.537Z,99126.27
2022-09-02T16:29:37.295Z,99125.27
2022-09-02T16:32:41.463Z,99123.05
2022-09-02T16:35:45.686Z,99124.79
2022-09-02T16:38:49.656Z,99123.73
2022-09-02T16:41:54.553Z,99125.45
2022-09-02T16:44:58.623Z,99125.80
2022-09-02T16:48:02.595Z,99124.13
2022-09-02T16:51:06.823Z,99129.08
2022-09-02T16:54:17.669Z,99125.85
2022-09-02T16:57:25.544Z,99126.57
2022-09-02T17:00:29.880Z,99124.78
2022-09-02T17:03:34.112Z,99124.34
2022-09-02T17:06:42.045Z,99121.30
2022-09-02T17:09:46.471Z,99120.89
2022-09-02T17:12:50.491Z,99119.84
2022-09-02T17:15:54.456Z,99120.48
2022-09-02T17:18:58.615Z,99123.17
2022-09-02T17:22:02.628Z,99123.41
2022-09-02T17:25:07.377Z,99125.07
2022-09-02T17:28:11.366Z,99126.69
2022-09-02T17:31:22.994Z,99130.59
2022-09-02T17:34:27.268Z,99130.77
2022-09-02T17:37:31.188Z,99130.57
2022-09-02T17:40:52.593Z,99126.98
2022-09-02T17:43:56.512Z,99130.10
2022-09-02T17:47:00.787Z,99134.71
2022-09-02T17:50:05.681Z,99135.61
2022-09-02T17:53:09.707Z,99136.20
2022-09-02T17:56:21.965Z,99140.00
2022-09-02T17:59:28.820Z,99139.27
2022-09-02T18:02:45.100Z,99141.88
2022-09-02T18:05:55.677Z,99140.93
2022-09-02T18:09:01.400Z,99144.59
2022-09-02T18:12:07.473Z,99142.46
2022-09-02T18:15:14.656Z,99144.84
2022-09-02T18:18:21.687Z,99147.60
2022-09-02T18:21:30.537Z,99147.27
2022-09-02T18:24:43.669Z,99143.83
2022-09-02T18:27:54.900Z,99147.48
2022-09-02T18:31:05.701Z,99150.62
2022-09-02T18:34:30.225Z,99148.06
2022-09-02T18:37:39.251Z,99144.52
2022-09-02T18:40:47.912Z,99148.54
2022-09-02T18:43:58.866Z,99146.77
2022-09-02T18:47:03.700Z,99147.77
2022-09-02T18:50:11.297Z,99152.74
2022-09-02T18:53:24.164Z,99152.03
2022-09-02T18:56:30.848Z,99148.23
2022-09-02T18:59:37.903Z,99148.83
2022-09-02T19:02:46.166Z,99153.22
2022-09-02T19:05:50.774Z,99154.60
2022-09-02T19:08:58.041Z,99160.13
2022-09-02T19:12:03.143Z,99162.41
2022-09-02T19:15:09.972Z,99161.02
2022-09-02T19:18:17.122Z,99160.89
2022-09-02T19:21:25.909Z,99160.67
2022-09-02T19:24:32.772Z,99162.64
2022-09-02T19:27:38.977Z,99163.35
2022-09-02T19:30:43.022Z,99162.48
2022-09-02T19:33:48.975Z,99167.96
2022-09-02T19:36:53.765Z,99165.85
2022-09-02T19:40:01.850Z,99165.03
2022-09-02T19:43:07.863Z,99172.29
2022-09-02T19:46:21.938Z,99172.11
2022-09-02T19:49:35.798Z,99176.40
2022-09-02T19:52:41.850Z,99173.87
2022-09-02T19:55:45.807Z,99174.63
2022-09-02T19:58:49.728Z,99174.79
2022-09-02T20:01:56.374Z,99175.28
2022-09-02T20:05:00.384Z,99177.69
2022-09-02T20:08:04.888Z,99176.23
2022-09-02T20:11:09.135Z,99172.41
2022-09-02T20:14:13.111Z,99172.30
2022-09-02T20:17:21.945Z,99173.05
2022-09-02T20:20:26.591Z,99173.66
2022-09-02T20:23:33.579Z,99171.32
2022-09-02T20:26:42.440Z,99172.34
2022-09-02T20:29:56.894Z,99173.98
2022-09-02T20:33:03.576Z,99172.40
2022-09-02T20:36:15.872Z,99168.61
2022-09-02T20:39:28.158Z,99169.50
2022-09-02T20:42:55.800Z,99171.33
2022-09-02T20:46:03.412Z,99179.16
2022-09-02T20:49:14.179Z,99181.14
2022-09-02T20:52:20.211Z,99181.89
2022-09-02T20:55:26.260Z,99180.64
2022-09-02T20:58:37.098Z,99176.09
2022-09-02T21:01:45.522Z,99175.54
2022-09-02T21:04:52.148Z,99177.33
2022-09-02T21:08:00.947Z,99180.07
2022-09-02T21:11:11.409Z,99181.71
2022-09-02T21:14:18.700Z,99179.86
2022-09-02T21:17:28.600Z,99183.89
2022-09-02T21:20:40.775Z,99180.23
2022-09-02T21:23:47.730Z,99185.39
2022-09-02T21:26:56.603Z,99186.30
2022-09-02T21:30:06.287Z,99181.88
2022-09-02T21:33:12.743Z,99177.70
2022-09-02T21:36:24.597Z,99179.83
2022-09-02T21:39:32.473Z,99182.20
2022-09-02T21:42:41.136Z,99181.10
2022-09-02T21:45:48.417Z,99184.52
2022-09-02T21:48:58.356Z,99181.58
2022-09-02T21:52:08.328Z,99183.53
2022-09-02T21:55:20.300Z,99181.81
2022-09-02T21:58:36.176Z,99184.86
2022-09-02T22:01:45.238Z,99188.40
2022-09-02T22:04:55.301Z,99192.80
2022-09-02T22:08:05.103Z,99193.23
2022-09-02T22:11:10.711Z,99189.31
2022-09-02T22:14:16.760Z,99186.58
2022-09-02T22:17:26.151Z,99183.98
2022-09-02T22:20:33.012Z,99181.12
2022-09-02T22:23:37.427Z,99175.02
2022-09-02T22:26:43.312Z,99178.79
2022-09-02T22:29:50.671Z,99174.96
2022-09-02T22:32:58.999Z,99170.89
2022-09-02T22:36:07.060Z,99166.40
2022-09-02T22:39:14.926Z,99171.19
2022-09-02T22:42:28.526Z,99169.59
2022-09-02T22:45:52.915Z,99164.70
2022-09-02T22:49:22.582Z,99165.19
2022-09-02T22:52:49.811Z,99162.16
2022-09-02T22:55:58.924Z,99162.70
2022-09-02T22:59:10.827Z,99163.77
2022-09-02T23:02:20.413Z,99164.70
2022-09-02T23:05:47.907Z,99166.02
2022-09-02T23:08:52.192Z,99163.40
2022-09-02T23:12:02.399Z,99164.55
2022-09-02T23:15:16.239Z,99165.58
2022-09-02T23:18:29.884Z,99162.58
2022-09-02T23:21:37.652Z,99163.10
2022-09-02T23:24:47.535Z,99165.44
2022-09-02T23:27:54.878Z,99162.98
2022-09-02T23:31:03.402Z,99164.94
2022-09-02T23:34:13.844Z,99161.52
2022-09-02T23:37:25.254Z,99163.55
2022-09-02T23:40:32.551Z,99163.93
2022-09-02T23:43:36.970Z,99162.86
2022-09-02T23:46:48.438Z,99156.19
2022-09-02T23:49:59.109Z,99155.92
2022-09-02T23:53:09.808Z,99155.84
2022-09-02T23:56:21.275Z,99158.70
2022-09-02T23:59:31.748Z,99157.65
